sensor_id;sensor_type;location;lat;lon;timestamp;temperature;humidity
51500;DHT22;39101;53.478;6.158;2023-08-17T00:02:04;16.40;99.90
51500;DHT22;39101;53.478;6.158;2023-08-17T00:04:30;16.40;99.90
51500;DHT22;39101;53.478;6.158;2023-08-17T00:06:55;16.40;99.90
51500;DHT22;39101;53.478;6.158;2023-08-17T00:09:21;16.40;99.90
51500;DHT22;39101;53.478;6.158;2023-08-17T00:11:47;16.40;99.90
51500;DHT22;39101;53.478;6.158;2023-08-17T00:14:13;16.40;99.90
51500;DHT22;39101;53.478;6.158;2023-08-17T00:16:39;16.40;99.90
51500;DHT22;39101;53.478;6.158;2023-08-17T00:19:04;16.40;99.90
51500;DHT22;39101;53.478;6.158;2023-08-17T00:21:30;16.40;99.90
51500;DHT22;39101;53.478;6.158;2023-08-17T00:23:55;16.40;99.90
51500;DHT22;39101;53.478;6.158;2023-08-17T00:26:21;16.40;99.90
51500;DHT22;39101;53.478;6.158;2023-08-17T00:28:47;16.40;99.90
51500;DHT22;39101;53.478;6.158;2023-08-17T00:31:12;16.40;99.90
51500;DHT22;39101;53.478;6.158;2023-08-17T00:33:38;16.40;99.90
51500;DHT22;39101;53.478;6.158;2023-08-17T00:36:04;16.40;99.90
51500;DHT22;39101;53.478;6.158;2023-08-17T00:38:29;16.50;99.90
51500;DHT22;39101;53.478;6.158;2023-08-17T00:40:55;16.50;99.90
51500;DHT22;39101;53.478;6.158;2023-08-17T00:43:20;16.50;99.90
51500;DHT22;39101;53.478;6.158;2023-08-17T00:45:46;16.50;99.90
51500;DHT22;39101;53.478;6.158;2023-08-17T00:48:12;16.50;99.90
51500;DHT22;39101;53.478;6.158;2023-08-17T00:50:38;16.50;99.90
51500;DHT22;39101;53.478;6.158;2023-08-17T00:53:04;16.50;99.90
51500;DHT22;39101;53.478;6.158;2023-08-17T00:55:30;16.40;99.90
51500;DHT22;39101;53.478;6.158;2023-08-17T00:57:56;16.40;99.90
51500;DHT22;39101;53.478;6.158;2023-08-17T01:00:22;16.40;99.90
51500;DHT22;39101;53.478;6.158;2023-08-17T01:02:49;16.40;99.90
51500;DHT22;39101;53.478;6.158;2023-08-17T01:05:14;16.40;99.90
51500;DHT22;39101;53.478;6.158;2023-08-17T01:07:40;16.40;99.90
51500;DHT22;39101;53.478;6.158;2023-08-17T01:10:06;16.40;99.90
51500;DHT22;39101;53.478;6.158;2023-08-17T01:12:42;16.40;99.90
51500;DHT22;39101;53.478;6.158;2023-08-17T01:15:19;16.30;99.90
51500;DHT22;39101;53.478;6.158;2023-08-17T01:20:24;16.30;99.90
51500;DHT22;39101;53.478;6.158;2023-08-17T01:22:50;16.30;99.90
51500;DHT22;39101;53.478;6.158;2023-08-17T01:25:17;16.30;99.90
51500;DHT22;39101;53.478;6.158;2023-08-17T01:27:45;16.20;99.90
51500;DHT22;39101;53.478;6.158;2023-08-17T01:30:13;16.30;99.90
51500;DHT22;39101;53.478;6.158;2023-08-17T01:32:48;16.30;99.90
51500;DHT22;39101;53.478;6.158;2023-08-17T01:35:19;16.20;99.90
51500;DHT22;39101;53.478;6.158;2023-08-17T01:37:47;16.20;99.90
51500;DHT22;39101;53.478;6.158;2023-08-17T01:40:12;16.20;99.90
51500;DHT22;39101;53.478;6.158;2023-08-17T01:42:39;16.20;99.90
51500;DHT22;39101;53.478;6.158;2023-08-17T01:45:05;16.20;99.90
51500;DHT22;39101;53.478;6.158;2023-08-17T01:47:30;16.10;99.90
51500;DHT22;39101;53.478;6.158;2023-08-17T01:49:56;16.20;99.90
51500;DHT22;39101;53.478;6.158;2023-08-17T01:52:27;16.20;99.90
51500;DHT22;39101;53.478;6.158;2023-08-17T01:54:53;16.20;99.90
51500;DHT22;39101;53.478;6.158;2023-08-17T01:57:19;16.20;99.90
51500;DHT22;39101;53.478;6.158;2023-08-17T01:59:45;16.20;99.90
51500;DHT22;39101;53.478;6.158;2023-08-17T02:02:10;16.20;99.90
51500;DHT22;39101;53.478;6.158;2023-08-17T02:04:37;16.10;99.90
51500;DHT22;39101;53.478;6.158;2023-08-17T02:07:02;16.20;99.90
51500;DHT22;39101;53.478;6.158;2023-08-17T02:09:28;16.20;99.90
51500;DHT22;39101;53.478;6.158;2023-08-17T02:11:54;16.20;99.90
51500;DHT22;39101;53.478;6.158;2023-08-17T02:14:19;16.20;99.90
51500;DHT22;39101;53.478;6.158;2023-08-17T02:16:45;16.20;99.90
51500;DHT22;39101;53.478;6.158;2023-08-17T02:19:10;16.20;99.90
51500;DHT22;39101;53.478;6.158;2023-08-17T02:21:36;16.20;99.90
51500;DHT22;39101;53.478;6.158;2023-08-17T02:24:01;16.20;99.90
51500;DHT22;39101;53.478;6.158;2023-08-17T02:26:29;16.30;99.90
51500;DHT22;39101;53.478;6.158;2023-08-17T02:28:55;16.20;99.90
51500;DHT22;39101;53.478;6.158;2023-08-17T02:31:20;16.30;99.90
51500;DHT22;39101;53.478;6.158;2023-08-17T02:33:46;16.30;99.90
51500;DHT22;39101;53.478;6.158;2023-08-17T02:36:11;16.30;99.90
51500;DHT22;39101;53.478;6.158;2023-08-17T02:38:37;16.20;99.90
51500;DHT22;39101;53.478;6.158;2023-08-17T02:41:02;16.30;99.90
51500;DHT22;39101;53.478;6.158;2023-08-17T02:43:28;16.30;99.90
51500;DHT22;39101;53.478;6.158;2023-08-17T02:45:54;16.30;99.90
51500;DHT22;39101;53.478;6.158;2023-08-17T02:48:19;16.30;99.90
51500;DHT22;39101;53.478;6.158;2023-08-17T02:50:45;16.30;99.90
51500;DHT22;39101;53.478;6.158;2023-08-17T02:53:10;16.30;99.90
51500;DHT22;39101;53.478;6.158;2023-08-17T02:55:36;16.30;99.90
51500;DHT22;39101;53.478;6.158;2023-08-17T02:58:01;16.20;99.90
51500;DHT22;39101;53.478;6.158;2023-08-17T03:00:28;16.30;99.90
51500;DHT22;39101;53.478;6.158;2023-08-17T03:02:53;16.20;99.90
51500;DHT22;39101;53.478;6.158;2023-08-17T03:05:19;16.20;99.90
51500;DHT22;39101;53.478;6.158;2023-08-17T03:07:45;16.20;99.90
51500;DHT22;39101;53.478;6.158;2023-08-17T03:10:10;16.20;99.90
51500;DHT22;39101;53.478;6.158;2023-08-17T03:12:36;16.20;99.90
51500;DHT22;39101;53.478;6.158;2023-08-17T03:15:04;16.20;99.90
51500;DHT22;39101;53.478;6.158;2023-08-17T03:17:30;16.10;99.90
51500;DHT22;39101;53.478;6.158;2023-08-17T03:19:55;16.20;99.90
51500;DHT22;39101;53.478;6.158;2023-08-17T03:22:24;16.10;99.90
51500;DHT22;39101;53.478;6.158;2023-08-17T03:24:50;16.10;99.90
51500;DHT22;39101;53.478;6.158;2023-08-17T03:27:15;16.20;99.90
51500;DHT22;39101;53.478;6.158;2023-08-17T03:29:41;16.20;99.90
51500;DHT22;39101;53.478;6.158;2023-08-17T03:32:06;16.20;99.90
51500;DHT22;39101;53.478;6.158;2023-08-17T03:34:32;16.10;99.90
51500;DHT22;39101;53.478;6.158;2023-08-17T03:36:57;16.10;99.90
51500;DHT22;39101;53.478;6.158;2023-08-17T03:39:23;16.10;99.90
51500;DHT22;39101;53.478;6.158;2023-08-17T03:41:48;16.10;99.90
51500;DHT22;39101;53.478;6.158;2023-08-17T03:44:14;16.10;99.90
51500;DHT22;39101;53.478;6.158;2023-08-17T03:46:40;16.20;99.90
51500;DHT22;39101;53.478;6.158;2023-08-17T03:49:06;16.20;99.90
51500;DHT22;39101;53.478;6.158;2023-08-17T03:51:32;16.20;99.90
51500;DHT22;39101;53.478;6.158;2023-08-17T03:53:57;16.20;99.90
51500;DHT22;39101;53.478;6.158;2023-08-17T03:56:23;16.30;99.90
51500;DHT22;39101;53.478;6.158;2023-08-17T03:58:49;16.30;99.90
51500;DHT22;39101;53.478;6.158;2023-08-17T04:01:15;16.30;99.90
51500;DHT22;39101;53.478;6.158;2023-08-17T04:03:41;16.30;99.90
51500;DHT22;39101;53.478;6.158;2023-08-17T04:06:06;16.20;99.90
51500;DHT22;39101;53.478;6.158;2023-08-17T04:08:35;16.20;99.90
51500;DHT22;39101;53.478;6.158;2023-08-17T04:11:01;16.20;99.90
51500;DHT22;39101;53.478;6.158;2023-08-17T04:13:26;16.20;99.90
51500;DHT22;39101;53.478;6.158;2023-08-17T04:15:52;16.20;99.90
51500;DHT22;39101;53.478;6.158;2023-08-17T04:18:18;16.20;99.90
51500;DHT22;39101;53.478;6.158;2023-08-17T04:20:43;16.20;99.90
51500;DHT22;39101;53.478;6.158;2023-08-17T04:23:09;16.20;99.90
51500;DHT22;39101;53.478;6.158;2023-08-17T04:25:34;16.10;99.90
51500;DHT22;39101;53.478;6.158;2023-08-17T04:28:00;16.20;99.90
51500;DHT22;39101;53.478;6.158;2023-08-17T04:30:25;16.20;99.90
51500;DHT22;39101;53.478;6.158;2023-08-17T04:32:51;16.10;99.90
51500;DHT22;39101;53.478;6.158;2023-08-17T04:35:18;16.10;99.90
51500;DHT22;39101;53.478;6.158;2023-08-17T04:37:44;16.10;99.90
51500;DHT22;39101;53.478;6.158;2023-08-17T04:40:09;16.10;99.90
51500;DHT22;39101;53.478;6.158;2023-08-17T04:42:35;16.10;99.90
51500;DHT22;39101;53.478;6.158;2023-08-17T04:45:01;16.20;99.90
51500;DHT22;39101;53.478;6.158;2023-08-17T04:47:27;16.20;99.90
51500;DHT22;39101;53.478;6.158;2023-08-17T04:49:53;16.10;99.90
51500;DHT22;39101;53.478;6.158;2023-08-17T04:52:18;16.20;99.90
51500;DHT22;39101;53.478;6.158;2023-08-17T04:54:44;16.20;99.90
51500;DHT22;39101;53.478;6.158;2023-08-17T04:57:09;16.20;99.90
51500;DHT22;39101;53.478;6.158;2023-08-17T04:59:36;16.30;99.90
51500;DHT22;39101;53.478;6.158;2023-08-17T05:02:01;16.00;99.90
51500;DHT22;39101;53.478;6.158;2023-08-17T05:04:27;16.30;99.90
51500;DHT22;39101;53.478;6.158;2023-08-17T05:06:52;16.30;99.90
51500;DHT22;39101;53.478;6.158;2023-08-17T05:09:18;16.30;99.90
51500;DHT22;39101;53.478;6.158;2023-08-17T05:11:43;16.30;99.90
51500;DHT22;39101;53.478;6.158;2023-08-17T05:14:09;16.30;99.90
51500;DHT22;39101;53.478;6.158;2023-08-17T05:16:34;16.40;99.90
51500;DHT22;39101;53.478;6.158;2023-08-17T05:19:00;16.40;99.90
51500;DHT22;39101;53.478;6.158;2023-08-17T05:21:26;16.40;99.90
51500;DHT22;39101;53.478;6.158;2023-08-17T05:23:51;16.40;99.90
51500;DHT22;39101;53.478;6.158;2023-08-17T05:26:17;16.40;99.90
51500;DHT22;39101;53.478;6.158;2023-08-17T05:28:42;16.40;99.90
51500;DHT22;39101;53.478;6.158;2023-08-17T05:31:10;16.40;99.90
51500;DHT22;39101;53.478;6.158;2023-08-17T05:33:36;16.40;99.90
51500;DHT22;39101;53.478;6.158;2023-08-17T05:36:03;16.50;99.90
51500;DHT22;39101;53.478;6.158;2023-08-17T05:38:28;16.50;99.90
51500;DHT22;39101;53.478;6.158;2023-08-17T05:40:57;16.60;99.90
51500;DHT22;39101;53.478;6.158;2023-08-17T05:43:23;16.60;99.90
51500;DHT22;39101;53.478;6.158;2023-08-17T05:45:48;16.60;99.90
51500;DHT22;39101;53.478;6.158;2023-08-17T05:48:14;16.70;99.90
51500;DHT22;39101;53.478;6.158;2023-08-17T05:50:43;16.70;99.90
51500;DHT22;39101;53.478;6.158;2023-08-17T05:53:08;16.70;99.90
51500;DHT22;39101;53.478;6.158;2023-08-17T05:55:34;16.70;99.90
51500;DHT22;39101;53.478;6.158;2023-08-17T05:57:59;16.70;99.90
51500;DHT22;39101;53.478;6.158;2023-08-17T06:00:25;16.70;99.90
51500;DHT22;39101;53.478;6.158;2023-08-17T06:02:50;16.80;99.90
51500;DHT22;39101;53.478;6.158;2023-08-17T06:05:17;16.80;99.90
51500;DHT22;39101;53.478;6.158;2023-08-17T06:07:42;16.80;99.90
51500;DHT22;39101;53.478;6.158;2023-08-17T06:10:09;16.80;99.90
51500;DHT22;39101;53.478;6.158;2023-08-17T06:12:34;16.90;99.90
51500;DHT22;39101;53.478;6.158;2023-08-17T06:15:01;16.90;99.90
51500;DHT22;39101;53.478;6.158;2023-08-17T06:17:27;17.00;99.90
51500;DHT22;39101;53.478;6.158;2023-08-17T06:19:52;17.00;99.90
51500;DHT22;39101;53.478;6.158;2023-08-17T06:22:18;17.10;99.90
51500;DHT22;39101;53.478;6.158;2023-08-17T06:24:43;17.20;99.90
51500;DHT22;39101;53.478;6.158;2023-08-17T06:27:09;17.30;99.90
51500;DHT22;39101;53.478;6.158;2023-08-17T06:29:35;17.40;99.90
51500;DHT22;39101;53.478;6.158;2023-08-17T06:32:00;17.40;99.90
51500;DHT22;39101;53.478;6.158;2023-08-17T06:34:26;17.50;99.90
51500;DHT22;39101;53.478;6.158;2023-08-17T06:36:58;17.50;99.90
51500;DHT22;39101;53.478;6.158;2023-08-17T06:39:24;17.70;99.90
51500;DHT22;39101;53.478;6.158;2023-08-17T06:41:49;17.70;99.90
51500;DHT22;39101;53.478;6.158;2023-08-17T06:44:15;17.70;99.90
51500;DHT22;39101;53.478;6.158;2023-08-17T06:46:40;17.70;99.90
51500;DHT22;39101;53.478;6.158;2023-08-17T06:49:06;17.80;99.90
51500;DHT22;39101;53.478;6.158;2023-08-17T06:51:32;17.80;99.90
51500;DHT22;39101;53.478;6.158;2023-08-17T06:53:57;17.70;99.90
51500;DHT22;39101;53.478;6.158;2023-08-17T06:56:23;17.80;99.90
51500;DHT22;39101;53.478;6.158;2023-08-17T06:58:49;17.80;99.90
51500;DHT22;39101;53.478;6.158;2023-08-17T07:01:17;17.70;99.90
51500;DHT22;39101;53.478;6.158;2023-08-17T07:03:52;17.80;99.90
51500;DHT22;39101;53.478;6.158;2023-08-17T07:06:18;17.90;99.90
51500;DHT22;39101;53.478;6.158;2023-08-17T07:08:43;18.00;99.90
51500;DHT22;39101;53.478;6.158;2023-08-17T07:11:09;18.00;99.90
51500;DHT22;39101;53.478;6.158;2023-08-17T07:13:34;18.10;99.90
51500;DHT22;39101;53.478;6.158;2023-08-17T07:16:00;18.20;99.90
51500;DHT22;39101;53.478;6.158;2023-08-17T07:18:28;18.20;99.90
51500;DHT22;39101;53.478;6.158;2023-08-17T07:20:54;18.20;99.90
51500;DHT22;39101;53.478;6.158;2023-08-17T07:23:19;18.20;99.90
51500;DHT22;39101;53.478;6.158;2023-08-17T07:25:45;18.20;99.90
51500;DHT22;39101;53.478;6.158;2023-08-17T07:28:11;18.20;99.90
51500;DHT22;39101;53.478;6.158;2023-08-17T07:30:36;18.30;99.90
51500;DHT22;39101;53.478;6.158;2023-08-17T07:33:02;18.40;99.90
51500;DHT22;39101;53.478;6.158;2023-08-17T07:35:27;18.50;99.90
51500;DHT22;39101;53.478;6.158;2023-08-17T07:37:53;18.60;99.90
51500;DHT22;39101;53.478;6.158;2023-08-17T07:40:18;18.60;99.90
51500;DHT22;39101;53.478;6.158;2023-08-17T07:42:45;18.60;99.90
51500;DHT22;39101;53.478;6.158;2023-08-17T07:45:10;18.60;99.90
51500;DHT22;39101;53.478;6.158;2023-08-17T07:47:36;18.60;99.90
51500;DHT22;39101;53.478;6.158;2023-08-17T07:50:03;18.70;99.90
51500;DHT22;39101;53.478;6.158;2023-08-17T07:52:28;18.60;99.90
51500;DHT22;39101;53.478;6.158;2023-08-17T07:54:54;18.40;99.90
51500;DHT22;39101;53.478;6.158;2023-08-17T07:57:20;18.50;99.90
51500;DHT22;39101;53.478;6.158;2023-08-17T07:59:45;18.50;99.90
51500;DHT22;39101;53.478;6.158;2023-08-17T08:02:11;18.40;99.90
51500;DHT22;39101;53.478;6.158;2023-08-17T08:04:36;18.40;99.90
51500;DHT22;39101;53.478;6.158;2023-08-17T08:07:02;18.30;99.90
51500;DHT22;39101;53.478;6.158;2023-08-17T08:09:27;18.30;99.90
51500;DHT22;39101;53.478;6.158;2023-08-17T08:11:53;18.30;99.90
51500;DHT22;39101;53.478;6.158;2023-08-17T08:14:19;18.20;99.90
51500;DHT22;39101;53.478;6.158;2023-08-17T08:16:44;18.20;99.90
51500;DHT22;39101;53.478;6.158;2023-08-17T08:19:10;18.20;99.90
51500;DHT22;39101;53.478;6.158;2023-08-17T08:21:35;18.20;99.90
51500;DHT22;39101;53.478;6.158;2023-08-17T08:24:01;18.20;99.90
51500;DHT22;39101;53.478;6.158;2023-08-17T08:26:26;18.30;99.90
51500;DHT22;39101;53.478;6.158;2023-08-17T08:28:52;18.40;99.90
51500;DHT22;39101;53.478;6.158;2023-08-17T08:31:17;18.50;99.90
51500;DHT22;39101;53.478;6.158;2023-08-17T08:33:43;18.70;99.90
51500;DHT22;39101;53.478;6.158;2023-08-17T08:36:09;18.80;99.90
51500;DHT22;39101;53.478;6.158;2023-08-17T08:38:34;19.00;99.90
51500;DHT22;39101;53.478;6.158;2023-08-17T08:41:00;19.10;99.90
51500;DHT22;39101;53.478;6.158;2023-08-17T08:43:26;19.10;99.90
51500;DHT22;39101;53.478;6.158;2023-08-17T08:45:52;19.10;99.90
51500;DHT22;39101;53.478;6.158;2023-08-17T08:48:20;19.20;99.90
51500;DHT22;39101;53.478;6.158;2023-08-17T08:50:47;19.20;99.90
51500;DHT22;39101;53.478;6.158;2023-08-17T08:53:14;19.40;99.90
51500;DHT22;39101;53.478;6.158;2023-08-17T08:56:01;19.40;99.90
51500;DHT22;39101;53.478;6.158;2023-08-17T08:58:26;19.30;99.90
51500;DHT22;39101;53.478;6.158;2023-08-17T09:00:52;19.20;99.90
51500;DHT22;39101;53.478;6.158;2023-08-17T09:03:19;19.20;99.90
51500;DHT22;39101;53.478;6.158;2023-08-17T09:05:48;19.20;99.90
51500;DHT22;39101;53.478;6.158;2023-08-17T09:08:15;19.20;99.90
51500;DHT22;39101;53.478;6.158;2023-08-17T09:10:41;19.20;99.90
51500;DHT22;39101;53.478;6.158;2023-08-17T09:13:06;19.20;99.90
51500;DHT22;39101;53.478;6.158;2023-08-17T09:15:32;19.00;99.90
51500;DHT22;39101;53.478;6.158;2023-08-17T09:17:58;19.10;99.90
51500;DHT22;39101;53.478;6.158;2023-08-17T09:20:36;19.20;99.90
51500;DHT22;39101;53.478;6.158;2023-08-17T09:23:03;19.20;99.90
51500;DHT22;39101;53.478;6.158;2023-08-17T09:25:29;19.20;99.90
51500;DHT22;39101;53.478;6.158;2023-08-17T09:27:54;19.20;99.90
51500;DHT22;39101;53.478;6.158;2023-08-17T09:30:23;19.20;99.90
51500;DHT22;39101;53.478;6.158;2023-08-17T09:32:49;19.20;99.90
51500;DHT22;39101;53.478;6.158;2023-08-17T09:35:15;19.20;99.90
51500;DHT22;39101;53.478;6.158;2023-08-17T09:37:40;19.20;99.90
51500;DHT22;39101;53.478;6.158;2023-08-17T09:40:06;19.20;99.90
51500;DHT22;39101;53.478;6.158;2023-08-17T09:42:35;19.10;99.90
51500;DHT22;39101;53.478;6.158;2023-08-17T09:45:00;19.20;99.90
51500;DHT22;39101;53.478;6.158;2023-08-17T09:47:26;19.10;99.90
51500;DHT22;39101;53.478;6.158;2023-08-17T09:49:52;19.20;99.90
51500;DHT22;39101;53.478;6.158;2023-08-17T09:52:18;19.00;99.90
51500;DHT22;39101;53.478;6.158;2023-08-17T09:54:45;19.00;99.90
51500;DHT22;39101;53.478;6.158;2023-08-17T09:57:11;19.00;99.90
51500;DHT22;39101;53.478;6.158;2023-08-17T09:59:37;19.00;99.90
51500;DHT22;39101;53.478;6.158;2023-08-17T10:02:03;19.00;99.90
51500;DHT22;39101;53.478;6.158;2023-08-17T10:04:29;19.00;99.90
51500;DHT22;39101;53.478;6.158;2023-08-17T10:07:00;19.10;99.90
51500;DHT22;39101;53.478;6.158;2023-08-17T10:09:31;19.10;99.90
51500;DHT22;39101;53.478;6.158;2023-08-17T10:11:57;19.10;99.90
51500;DHT22;39101;53.478;6.158;2023-08-17T10:14:25;19.10;99.90
51500;DHT22;39101;53.478;6.158;2023-08-17T10:16:57;19.20;99.90
51500;DHT22;39101;53.478;6.158;2023-08-17T10:19:37;19.20;99.90
51500;DHT22;39101;53.478;6.158;2023-08-17T10:22:19;19.20;99.90
51500;DHT22;39101;53.478;6.158;2023-08-17T10:24:45;19.20;99.90
51500;DHT22;39101;53.478;6.158;2023-08-17T10:27:11;19.20;99.90
51500;DHT22;39101;53.478;6.158;2023-08-17T10:29:38;19.30;99.90
51500;DHT22;39101;53.478;6.158;2023-08-17T10:32:07;19.30;99.90
51500;DHT22;39101;53.478;6.158;2023-08-17T10:34:34;19.20;99.90
51500;DHT22;39101;53.478;6.158;2023-08-17T10:37:00;19.30;99.90
51500;DHT22;39101;53.478;6.158;2023-08-17T10:39:26;19.30;99.90
51500;DHT22;39101;53.478;6.158;2023-08-17T10:41:52;19.20;99.90
51500;DHT22;39101;53.478;6.158;2023-08-17T10:44:37;19.20;99.90
51500;DHT22;39101;53.478;6.158;2023-08-17T10:47:18;19.10;99.90
51500;DHT22;39101;53.478;6.158;2023-08-17T10:49:45;19.00;99.90
51500;DHT22;39101;53.478;6.158;2023-08-17T10:52:10;19.10;99.90
51500;DHT22;39101;53.478;6.158;2023-08-17T10:54:37;19.10;99.90
51500;DHT22;39101;53.478;6.158;2023-08-17T10:59:49;19.20;99.90
51500;DHT22;39101;53.478;6.158;2023-08-17T11:02:34;19.20;99.90
51500;DHT22;39101;53.478;6.158;2023-08-17T11:05:02;19.20;99.90
51500;DHT22;39101;53.478;6.158;2023-08-17T11:07:38;19.20;99.90
51500;DHT22;39101;53.478;6.158;2023-08-17T11:10:10;19.20;99.90
51500;DHT22;39101;53.478;6.158;2023-08-17T11:12:35;19.20;99.90
51500;DHT22;39101;53.478;6.158;2023-08-17T11:15:01;19.20;99.90
51500;DHT22;39101;53.478;6.158;2023-08-17T11:17:27;19.20;99.90
51500;DHT22;39101;53.478;6.158;2023-08-17T11:19:52;19.20;99.90
51500;DHT22;39101;53.478;6.158;2023-08-17T11:22:18;19.20;99.90
51500;DHT22;39101;53.478;6.158;2023-08-17T11:24:44;19.10;99.90
51500;DHT22;39101;53.478;6.158;2023-08-17T11:27:09;19.00;99.90
51500;DHT22;39101;53.478;6.158;2023-08-17T11:29:35;19.20;99.90
51500;DHT22;39101;53.478;6.158;2023-08-17T11:32:00;19.10;99.90
51500;DHT22;39101;53.478;6.158;2023-08-17T11:34:26;19.10;99.90
51500;DHT22;39101;53.478;6.158;2023-08-17T11:36:56;19.10;99.90
51500;DHT22;39101;53.478;6.158;2023-08-17T11:39:22;19.00;99.90
51500;DHT22;39101;53.478;6.158;2023-08-17T11:41:48;19.00;99.90
51500;DHT22;39101;53.478;6.158;2023-08-17T11:44:13;19.00;99.90
51500;DHT22;39101;53.478;6.158;2023-08-17T11:46:40;18.90;99.90
51500;DHT22;39101;53.478;6.158;2023-08-17T11:49:06;18.80;99.90
51500;DHT22;39101;53.478;6.158;2023-08-17T11:51:32;18.90;99.90
51500;DHT22;39101;53.478;6.158;2023-08-17T11:54:01;18.80;99.90
51500;DHT22;39101;53.478;6.158;2023-08-17T11:56:29;18.70;99.90
51500;DHT22;39101;53.478;6.158;2023-08-17T11:58:54;18.70;99.90
51500;DHT22;39101;53.478;6.158;2023-08-17T12:01:20;18.60;99.90
51500;DHT22;39101;53.478;6.158;2023-08-17T12:03:47;18.60;99.90
51500;DHT22;39101;53.478;6.158;2023-08-17T12:06:15;18.60;99.90
51500;DHT22;39101;53.478;6.158;2023-08-17T12:08:43;18.70;99.90
51500;DHT22;39101;53.478;6.158;2023-08-17T12:11:08;18.80;99.90
51500;DHT22;39101;53.478;6.158;2023-08-17T12:13:34;18.80;99.90
51500;DHT22;39101;53.478;6.158;2023-08-17T12:16:00;18.80;99.90
51500;DHT22;39101;53.478;6.158;2023-08-17T12:18:26;18.80;99.90
51500;DHT22;39101;53.478;6.158;2023-08-17T12:20:52;18.20;99.90
51500;DHT22;39101;53.478;6.158;2023-08-17T12:23:17;18.60;99.90
51500;DHT22;39101;53.478;6.158;2023-08-17T12:25:43;18.70;99.90
51500;DHT22;39101;53.478;6.158;2023-08-17T12:28:08;18.70;99.90
51500;DHT22;39101;53.478;6.158;2023-08-17T12:30:37;18.70;99.90
51500;DHT22;39101;53.478;6.158;2023-08-17T12:33:03;18.70;99.90
51500;DHT22;39101;53.478;6.158;2023-08-17T12:35:29;18.80;99.90
51500;DHT22;39101;53.478;6.158;2023-08-17T12:37:55;18.70;99.90
51500;DHT22;39101;53.478;6.158;2023-08-17T12:40:21;18.70;99.90
51500;DHT22;39101;53.478;6.158;2023-08-17T12:42:47;18.70;99.90
51500;DHT22;39101;53.478;6.158;2023-08-17T12:45:12;18.70;99.90
51500;DHT22;39101;53.478;6.158;2023-08-17T12:47:38;18.60;99.90
51500;DHT22;39101;53.478;6.158;2023-08-17T12:50:04;18.60;99.90
51500;DHT22;39101;53.478;6.158;2023-08-17T12:52:29;18.70;99.90
51500;DHT22;39101;53.478;6.158;2023-08-17T12:54:55;18.50;99.90
51500;DHT22;39101;53.478;6.158;2023-08-17T12:57:21;18.60;99.90
51500;DHT22;39101;53.478;6.158;2023-08-17T12:59:46;18.60;99.90
51500;DHT22;39101;53.478;6.158;2023-08-17T13:02:12;18.60;99.90
51500;DHT22;39101;53.478;6.158;2023-08-17T13:04:37;18.60;99.90
51500;DHT22;39101;53.478;6.158;2023-08-17T13:07:03;18.60;99.90
51500;DHT22;39101;53.478;6.158;2023-08-17T13:09:28;18.50;99.90
51500;DHT22;39101;53.478;6.158;2023-08-17T13:11:54;18.60;99.90
51500;DHT22;39101;53.478;6.158;2023-08-17T13:14:20;18.60;99.90
51500;DHT22;39101;53.478;6.158;2023-08-17T13:16:45;18.60;99.90
51500;DHT22;39101;53.478;6.158;2023-08-17T13:19:11;18.60;99.90
51500;DHT22;39101;53.478;6.158;2023-08-17T13:21:36;18.70;99.90
51500;DHT22;39101;53.478;6.158;2023-08-17T13:24:02;18.60;99.90
51500;DHT22;39101;53.478;6.158;2023-08-17T13:26:28;18.50;99.90
51500;DHT22;39101;53.478;6.158;2023-08-17T13:28:54;18.60;99.90
51500;DHT22;39101;53.478;6.158;2023-08-17T13:31:20;18.50;99.90
51500;DHT22;39101;53.478;6.158;2023-08-17T13:33:45;18.50;99.90
51500;DHT22;39101;53.478;6.158;2023-08-17T13:36:11;18.50;99.90
51500;DHT22;39101;53.478;6.158;2023-08-17T13:38:36;18.50;99.90
51500;DHT22;39101;53.478;6.158;2023-08-17T13:41:04;18.40;99.90
51500;DHT22;39101;53.478;6.158;2023-08-17T13:43:29;18.40;99.90
51500;DHT22;39101;53.478;6.158;2023-08-17T13:45:55;18.40;99.90
51500;DHT22;39101;53.478;6.158;2023-08-17T13:48:20;18.40;99.90
51500;DHT22;39101;53.478;6.158;2023-08-17T13:50:46;18.40;99.90
51500;DHT22;39101;53.478;6.158;2023-08-17T13:53:11;18.30;99.90
51500;DHT22;39101;53.478;6.158;2023-08-17T13:55:37;18.40;99.90
51500;DHT22;39101;53.478;6.158;2023-08-17T13:58:02;18.30;99.90
51500;DHT22;39101;53.478;6.158;2023-08-17T14:00:28;18.30;99.90
51500;DHT22;39101;53.478;6.158;2023-08-17T14:02:54;18.20;99.90
51500;DHT22;39101;53.478;6.158;2023-08-17T14:05:19;18.20;99.90
51500;DHT22;39101;53.478;6.158;2023-08-17T14:07:45;18.20;99.90
51500;DHT22;39101;53.478;6.158;2023-08-17T14:10:10;18.10;99.90
51500;DHT22;39101;53.478;6.158;2023-08-17T14:12:36;18.20;99.90
51500;DHT22;39101;53.478;6.158;2023-08-17T14:15:02;18.20;99.90
51500;DHT22;39101;53.478;6.158;2023-08-17T14:17:27;18.20;99.90
51500;DHT22;39101;53.478;6.158;2023-08-17T14:19:53;18.20;99.90
51500;DHT22;39101;53.478;6.158;2023-08-17T14:22:20;18.20;99.90
51500;DHT22;39101;53.478;6.158;2023-08-17T14:24:45;18.20;99.90
51500;DHT22;39101;53.478;6.158;2023-08-17T14:27:11;18.20;99.90
51500;DHT22;39101;53.478;6.158;2023-08-17T14:29:36;18.10;99.90
51500;DHT22;39101;53.478;6.158;2023-08-17T14:32:02;18.20;99.90
51500;DHT22;39101;53.478;6.158;2023-08-17T14:34:27;18.10;99.90
51500;DHT22;39101;53.478;6.158;2023-08-17T14:36:53;18.20;99.90
51500;DHT22;39101;53.478;6.158;2023-08-17T14:39:18;18.10;99.90
51500;DHT22;39101;53.478;6.158;2023-08-17T14:41:44;18.10;99.90
51500;DHT22;39101;53.478;6.158;2023-08-17T14:44:10;18.10;99.90
51500;DHT22;39101;53.478;6.158;2023-08-17T14:46:35;18.10;99.90
51500;DHT22;39101;53.478;6.158;2023-08-17T14:49:01;18.00;99.90
51500;DHT22;39101;53.478;6.158;2023-08-17T14:51:28;18.00;99.90
51500;DHT22;39101;53.478;6.158;2023-08-17T14:53:53;18.00;99.90
51500;DHT22;39101;53.478;6.158;2023-08-17T14:56:19;18.00;99.90
51500;DHT22;39101;53.478;6.158;2023-08-17T14:58:44;18.00;99.90
51500;DHT22;39101;53.478;6.158;2023-08-17T15:01:10;18.00;99.90
51500;DHT22;39101;53.478;6.158;2023-08-17T15:03:36;18.00;99.90
51500;DHT22;39101;53.478;6.158;2023-08-17T15:06:01;18.00;99.90
51500;DHT22;39101;53.478;6.158;2023-08-17T15:08:27;18.00;99.90
51500;DHT22;39101;53.478;6.158;2023-08-17T15:10:53;18.00;99.90
51500;DHT22;39101;53.478;6.158;2023-08-17T15:13:18;18.00;99.90
51500;DHT22;39101;53.478;6.158;2023-08-17T15:15:44;18.10;99.90
51500;DHT22;39101;53.478;6.158;2023-08-17T15:18:10;18.00;99.90
51500;DHT22;39101;53.478;6.158;2023-08-17T15:20:35;18.10;99.90
51500;DHT22;39101;53.478;6.158;2023-08-17T15:23:01;18.10;99.90
51500;DHT22;39101;53.478;6.158;2023-08-17T15:25:26;18.10;99.90
51500;DHT22;39101;53.478;6.158;2023-08-17T15:27:52;18.10;99.90
51500;DHT22;39101;53.478;6.158;2023-08-17T15:30:18;18.10;99.90